Mitsukawa Maru — JD2495 — position and weather

sailwx.info

Track history (hours):
 
Tides and Currents Weather Stations Pressure Air Temp Water Temp Dewpoint Dewpoint Depression Visibility Wind Speed Wind Dir Waves Ship Positions

Mitsukawa Maru

Last reported at 2014-Nov-16 14:33 UTC. Time now 2014-Nov-23 07:30 UTC.
Position N 35°10' E 139°44'.

Length 105 m; draft 4.2 m.

Type: Cargo ship. MMSI: 431000326.

Date/timePositionNaut miles runAvg speedWind from/ knotsBaromVisibWave heightAir tempDewpointWater temp
2014-Nov-16 14:33N 35°10' E 139°44'1111.1
2014-Nov-16 13:33N 35°21' E 139°42'1312.7
2014-Nov-16 12:33N 35°31' E 139°53'5 0.4
2014-Nov-15 23:26N 35°33' E 139°59'1 0.8
2014-Nov-15 22:34N 35°33' E 139°58'1211.6
2014-Nov-15 21:34N 35°25' E 139°47'1110.7
2014-Nov-15 20:32N 35°14' E 139°47'1211.3
2014-Nov-15 19:30N 35°03' E 139°42'  
2014-Nov-12 12:17N 35°08' E 139°42'911.5
2014-Nov-12 11:31N 35°16' E 139°46'1010.8
2014-Nov-12 10:33N 35°27' E 139°47'11 0.6
2014-Nov-11 17:30N 35°33' E 139°58'1111.7
2014-Nov-11 16:33N 35°26' E 139°48'1010.2
2014-Nov-11 15:34N 35°15' E 139°47'  
2014-Nov-08 13:33N 35°07' E 139°41'1212.1
2014-Nov-08 12:33N 35°19' E 139°43'1211.9
2014-Nov-08 11:33N 35°29' E 139°51'1413.0
2014-Nov-08 10:27N 35°35' E 140°06'6 0.5
2014-Nov-07 21:32N 35°34' E 139°59'0 0.0
2014-Nov-07 17:15N 35°33' E 139°59'5 6.8
2014-Nov-07 16:33N 35°31' E 139°54'1212.0
2014-Nov-07 15:33N 35°22' E 139°45'1111.2
2014-Nov-07 14:33N 35°10' E 139°46'  
Track history (hours):
 
Tides and Currents Weather Stations Pressure Air Temp Water Temp Dewpoint Dewpoint Depression Visibility Wind Speed Wind Dir Waves Ship Positions

Mitsukawa Maru

Last reported at 2014-Nov-16 14:33 UTC. Time now 2014-Nov-23 07:30 UTC.
Position N 35°10' E 139°44'.

Length 105 m; draft 4.2 m.

Type: Cargo ship. MMSI: 431000326.

Date/timePositionNaut miles runAvg speedWind from/ knotsBaromVisibWave heightAir tempDewpointWater temp
2014-Nov-16 14:33N 35°10' E 139°44'1111.1
2014-Nov-16 13:33N 35°21' E 139°42'1312.7
2014-Nov-16 12:33N 35°31' E 139°53'5 0.4
2014-Nov-15 23:26N 35°33' E 139°59'1 0.8
2014-Nov-15 22:34N 35°33' E 139°58'1211.6
2014-Nov-15 21:34N 35°25' E 139°47'1110.7
2014-Nov-15 20:32N 35°14' E 139°47'1211.3
2014-Nov-15 19:30N 35°03' E 139°42'  
2014-Nov-12 12:17N 35°08' E 139°42'911.5
2014-Nov-12 11:31N 35°16' E 139°46'1010.8
2014-Nov-12 10:33N 35°27' E 139°47'11 0.6
2014-Nov-11 17:30N 35°33' E 139°58'1111.7
2014-Nov-11 16:33N 35°26' E 139°48'1010.2
2014-Nov-11 15:34N 35°15' E 139°47'  
2014-Nov-08 13:33N 35°07' E 139°41'1212.1
2014-Nov-08 12:33N 35°19' E 139°43'1211.9
2014-Nov-08 11:33N 35°29' E 139°51'1413.0
2014-Nov-08 10:27N 35°35' E 140°06'6 0.5
2014-Nov-07 21:32N 35°34' E 139°59'0 0.0
2014-Nov-07 17:15N 35°33' E 139°59'5 6.8
2014-Nov-07 16:33N 35°31' E 139°54'1212.0
2014-Nov-07 15:33N 35°22' E 139°45'1111.2
2014-Nov-07 14:33N 35°10' E 139°46'  

Dump ship's entire track history